LFST 210100Z AUTO 19009KT CAVOK 05/M01 Q1000 NOSIG

TAF LFST 201700Z 2018/2118 20008KT CAVOK PROB40 TEMPO 2109/2112 20015G25KT PROB40 TEMPO 2112/2118 -RA

 

Temperature in degrees Celsius: 5
Dew Point Temperature in degrees Celsius: -1

 

http://openflyers.com/case/icingChart.php?chart=2&temperature=5&dewPoint=-1